createdAt,value
2018-05-23T00:00:32.974Z,15.18
2018-05-23T00:03:01.653Z,15.14
2018-05-23T00:05:30.339Z,15.10
2018-05-23T00:07:59.963Z,15.06
2018-05-23T00:10:30.501Z,15.03
2018-05-23T00:12:59.114Z,14.97
2018-05-23T00:15:27.794Z,14.91
2018-05-23T00:17:56.416Z,14.88
2018-05-23T00:20:25.062Z,14.83
2018-05-23T00:22:53.670Z,15.51
2018-05-23T00:25:22.308Z,15.01
2018-05-23T00:27:50.948Z,14.91
2018-05-23T00:30:19.606Z,14.84
2018-05-23T00:32:48.243Z,14.78
2018-05-23T00:35:16.856Z,14.73
2018-05-23T00:37:45.493Z,14.68
2018-05-23T00:40:14.098Z,14.61
2018-05-23T00:42:42.766Z,15.28
2018-05-23T00:45:11.391Z,14.76
2018-05-23T00:47:40.046Z,14.64
2018-05-23T00:50:08.705Z,14.54
2018-05-23T00:52:37.347Z,14.49
2018-05-23T00:55:36.495Z,15.15
2018-05-23T00:58:05.118Z,14.55
2018-05-23T01:00:33.765Z,14.45
2018-05-23T01:03:02.367Z,14.37
2018-05-23T01:05:31.002Z,14.30
2018-05-23T01:07:59.657Z,14.27
2018-05-23T01:10:28.267Z,14.21
2018-05-23T01:12:56.892Z,14.17
2018-05-23T01:15:27.904Z,14.12
2018-05-23T01:17:56.525Z,14.08
2018-05-23T01:20:25.138Z,14.03
2018-05-23T01:22:56.102Z,14.01
2018-05-23T01:25:24.751Z,13.98
2018-05-23T01:27:53.418Z,13.97
2018-05-23T01:30:22.039Z,13.97
2018-05-23T01:32:51.059Z,14.64
2018-05-23T01:35:19.686Z,14.18
2018-05-23T01:38:06.316Z,14.09
2018-05-23T01:40:37.321Z,14.02
2018-05-23T01:43:05.957Z,14.70
2018-05-23T01:45:34.567Z,14.22
2018-05-23T01:48:03.217Z,14.08
2018-05-23T01:50:31.832Z,14.02
2018-05-23T01:53:00.945Z,13.94
2018-05-23T01:55:30.566Z,13.88
2018-05-23T01:57:59.734Z,13.83
2018-05-23T02:00:28.829Z,13.79
2018-05-23T02:02:57.492Z,13.74
2018-05-23T02:05:30.170Z,13.74
2018-05-23T02:07:58.831Z,13.68
2018-05-23T02:10:27.799Z,13.68
2018-05-23T02:12:56.453Z,13.66
2018-05-23T02:15:25.070Z,13.65
2018-05-23T02:17:53.712Z,13.63
2018-05-23T02:20:22.293Z,13.59
2018-05-23T02:22:50.964Z,13.55
2018-05-23T02:25:19.592Z,13.53
2018-05-23T02:27:48.221Z,13.50
2018-05-23T02:30:16.879Z,13.47
2018-05-23T02:32:45.520Z,13.46
2018-05-23T02:35:14.150Z,13.42
2018-05-23T02:37:45.777Z,13.39
2018-05-23T02:40:16.333Z,14.07
2018-05-23T02:43:02.620Z,13.56
2018-05-23T02:45:31.612Z,13.37
2018-05-23T02:48:02.262Z,13.30
2018-05-23T02:50:35.760Z,13.21
2018-05-23T02:53:06.595Z,13.17
2018-05-23T02:55:35.200Z,13.85
2018-05-23T02:58:03.899Z,13.34
2018-05-23T03:00:32.528Z,13.24
2018-05-23T03:03:03.643Z,13.18
2018-05-23T03:05:33.125Z,13.14
2018-05-23T03:08:03.817Z,13.11
2018-05-23T03:10:32.472Z,13.10
2018-05-23T03:13:03.066Z,13.09
2018-05-23T03:15:33.943Z,13.07
2018-05-23T03:18:05.205Z,13.05
2018-05-23T03:20:41.271Z,13.05
2018-05-23T03:23:09.943Z,13.04
2018-05-23T03:25:38.611Z,13.04
2018-05-23T03:28:09.382Z,13.06
2018-05-23T03:30:38.038Z,13.08
2018-05-23T03:33:06.681Z,13.11
2018-05-23T03:35:35.340Z,13.14
2018-05-23T03:38:06.740Z,13.87
2018-05-23T03:40:43.756Z,13.43
2018-05-23T03:43:12.413Z,13.37
2018-05-23T03:45:41.099Z,13.42
2018-05-23T03:48:09.831Z,13.44
2018-05-23T03:50:39.417Z,13.48
2018-05-23T03:53:10.869Z,13.52
2018-05-23T03:55:39.559Z,13.56
2018-05-23T03:58:10.888Z,13.60
2018-05-23T04:01:09.871Z,13.68
2018-05-23T04:04:15.393Z,13.72
2018-05-23T04:07:28.657Z,13.80
2018-05-23T04:10:04.586Z,13.86
2018-05-23T04:12:38.030Z,13.99
2018-05-23T04:15:09.177Z,14.10
2018-05-23T04:17:37.819Z,14.18
2018-05-23T04:20:06.481Z,14.26
2018-05-23T04:22:36.212Z,14.30
2018-05-23T04:25:04.868Z,14.36
2018-05-23T04:27:33.544Z,14.42
2018-05-23T04:30:02.229Z,14.48
2018-05-23T04:32:30.857Z,14.55
2018-05-23T04:34:59.612Z,14.62
2018-05-23T04:37:28.260Z,14.70
2018-05-23T04:39:56.890Z,15.45
2018-05-23T04:42:25.552Z,15.03
2018-05-23T04:44:54.179Z,15.00
2018-05-23T04:47:22.836Z,15.01
2018-05-23T04:49:51.473Z,15.03
2018-05-23T04:52:20.295Z,15.05
2018-05-23T04:54:48.913Z,15.08
2018-05-23T04:57:18.558Z,15.13
2018-05-23T04:59:47.178Z,15.90
2018-05-23T05:02:16.126Z,15.46
2018-05-23T05:04:44.763Z,15.42
2018-05-23T05:07:13.672Z,15.43
2018-05-23T05:09:42.289Z,15.46
2018-05-23T05:12:13.301Z,16.29
2018-05-23T05:14:41.996Z,15.86
2018-05-23T05:17:10.640Z,16.61
2018-05-23T05:19:39.344Z,16.19
2018-05-23T05:22:07.974Z,16.20
2018-05-23T05:24:38.525Z,16.97
2018-05-23T05:27:08.704Z,16.52
2018-05-23T05:29:37.379Z,16.54
2018-05-23T05:32:06.033Z,16.60
2018-05-23T05:34:34.683Z,17.43
2018-05-23T05:37:03.300Z,17.07
2018-05-23T05:39:31.965Z,17.16
2018-05-23T05:42:00.651Z,17.27
2018-05-23T05:44:29.461Z,17.38
2018-05-23T05:46:58.142Z,17.53
2018-05-23T05:49:26.809Z,17.70
2018-05-23T05:51:55.651Z,18.49
2018-05-23T05:54:24.299Z,18.19
2018-05-23T05:56:52.934Z,18.28
2018-05-23T05:59:21.558Z,18.39
2018-05-23T06:01:50.400Z,18.53
2018-05-23T06:04:19.112Z,18.68
2018-05-23T06:06:47.931Z,19.53
2018-05-23T06:09:16.556Z,19.95
2018-05-23T06:11:45.265Z,20.25
2018-05-23T06:14:14.185Z,19.94
2018-05-23T06:16:43.170Z,20.04
2018-05-23T06:19:14.042Z,20.11
2018-05-23T06:21:43.820Z,20.28
2018-05-23T06:24:12.499Z,20.44
2018-05-23T06:26:42.249Z,21.29
2018-05-23T06:29:12.955Z,20.95
2018-05-23T06:31:41.574Z,21.00
2018-05-23T06:34:16.846Z,21.16
2018-05-23T06:36:47.052Z,21.35
2018-05-23T06:39:15.642Z,21.50
2018-05-23T06:41:44.282Z,21.74
2018-05-23T06:44:14.224Z,22.66
2018-05-23T06:46:42.802Z,22.24
2018-05-23T06:49:11.473Z,22.31
2018-05-23T06:51:40.147Z,22.49
2018-05-23T06:54:08.787Z,22.61
2018-05-23T06:56:37.413Z,22.76
2018-05-23T06:59:06.060Z,22.76
2018-05-23T07:01:34.697Z,22.94
2018-05-23T07:04:03.358Z,23.18
2018-05-23T07:06:31.990Z,23.29
2018-05-23T07:09:00.630Z,23.47
2018-05-23T07:14:22.281Z,23.99
2018-05-23T07:16:58.502Z,24.03
2018-05-23T07:19:27.154Z,24.07
2018-05-23T07:21:57.970Z,24.18
2018-05-23T07:24:26.543Z,24.27
2018-05-23T07:26:56.143Z,24.42
2018-05-23T07:29:24.800Z,24.56
2018-05-23T07:31:55.716Z,24.66
2018-05-23T07:34:24.346Z,25.78
2018-05-23T07:36:52.955Z,26.08
2018-05-23T07:39:21.647Z,25.45
2018-05-23T07:42:00.997Z,25.46
2018-05-23T07:44:29.634Z,25.40
2018-05-23T07:46:58.305Z,25.43
2018-05-23T07:49:28.964Z,25.47
2018-05-23T07:51:57.703Z,25.51
2018-05-23T07:54:26.425Z,25.53
2018-05-23T07:56:55.461Z,25.61
2018-05-23T07:59:24.433Z,25.64
2018-05-23T08:01:54.647Z,25.74
2018-05-23T08:04:24.209Z,25.90
2018-05-23T08:06:54.448Z,25.98
2018-05-23T08:09:29.980Z,26.07
2018-05-23T08:12:03.096Z,25.92
2018-05-23T08:14:31.738Z,26.99
2018-05-23T08:17:00.359Z,26.17
2018-05-23T08:19:30.021Z,26.26
2018-05-23T08:21:59.120Z,26.29
2018-05-23T08:24:27.849Z,26.40
2018-05-23T08:26:56.398Z,26.55
2018-05-23T08:29:29.078Z,26.68
2018-05-23T08:31:57.702Z,26.61
2018-05-23T08:34:26.337Z,26.75
2018-05-23T08:36:55.250Z,26.82
2018-05-23T08:39:23.881Z,26.75
2018-05-23T08:41:52.484Z,27.99
2018-05-23T08:44:21.080Z,27.12
2018-05-23T08:46:49.758Z,26.93
2018-05-23T08:49:18.361Z,26.92
2018-05-23T08:51:47.381Z,27.02
2018-05-23T08:54:16.006Z,27.07
2018-05-23T08:56:44.724Z,28.26
2018-05-23T08:59:13.326Z,28.45
2018-05-23T09:01:42.020Z,28.68
2018-05-23T09:04:11.925Z,27.83
2018-05-23T09:06:44.447Z,28.83
2018-05-23T09:09:14.941Z,28.07
2018-05-23T09:11:43.903Z,28.03
2018-05-23T09:14:12.551Z,29.24
2018-05-23T09:16:43.780Z,28.40
2018-05-23T09:19:13.302Z,28.30
2018-05-23T09:21:41.993Z,28.45
2018-05-23T09:24:10.912Z,28.42
2018-05-23T09:26:40.011Z,28.55
2018-05-23T09:29:08.609Z,28.77
2018-05-23T09:31:37.250Z,28.93
2018-05-23T09:34:16.263Z,30.45
2018-05-23T09:36:46.843Z,29.54
2018-05-23T09:39:15.898Z,29.47
2018-05-23T09:41:44.848Z,29.32
2018-05-23T09:44:16.090Z,29.41
2018-05-23T09:46:45.345Z,29.48
2018-05-23T09:49:13.938Z,30.96
2018-05-23T09:51:42.730Z,29.95
2018-05-23T09:54:11.335Z,29.75
2018-05-23T09:56:40.451Z,29.34
2018-05-23T09:59:10.374Z,28.74
2018-05-23T10:01:39.197Z,29.81
2018-05-23T10:04:07.739Z,30.01
2018-05-23T10:06:38.755Z,29.09
2018-05-23T10:09:09.474Z,30.07
2018-05-23T10:11:40.041Z,29.13
2018-05-23T10:14:08.676Z,30.27
2018-05-23T10:16:37.304Z,29.49
2018-05-23T10:19:07.976Z,29.40
2018-05-23T10:21:38.640Z,29.56
2018-05-23T10:24:08.455Z,29.89
2018-05-23T10:29:25.521Z,30.18
2018-05-23T10:31:56.945Z,30.14
2018-05-23T10:34:25.155Z,30.15
2018-05-23T10:36:56.878Z,30.19
2018-05-23T10:39:25.498Z,31.55
2018-05-23T10:41:55.582Z,31.67
2018-05-23T10:44:27.019Z,31.81
2018-05-23T10:46:58.037Z,30.75
2018-05-23T10:49:26.688Z,30.62
2018-05-23T10:51:55.852Z,30.43
2018-05-23T10:54:24.469Z,31.88
2018-05-23T10:56:53.107Z,31.03
2018-05-23T10:59:21.753Z,32.47
2018-05-23T11:01:50.404Z,31.41
2018-05-23T11:04:19.388Z,31.26
2018-05-23T11:06:48.065Z,31.41
2018-05-23T11:09:21.716Z,31.72
2018-05-23T11:11:51.917Z,32.09
2018-05-23T11:14:20.548Z,32.15
2018-05-23T11:16:49.157Z,32.25
2018-05-23T11:19:18.126Z,32.14
2018-05-23T11:21:46.716Z,32.00
2018-05-23T11:24:15.341Z,32.07
2018-05-23T11:26:43.964Z,31.98
2018-05-23T11:29:12.609Z,31.89
2018-05-23T11:31:41.209Z,31.63
2018-05-23T11:34:09.833Z,31.11
2018-05-23T11:36:43.267Z,30.60
2018-05-23T11:39:12.228Z,30.14
2018-05-23T11:41:40.836Z,29.85
2018-05-23T11:44:09.540Z,29.75
2018-05-23T11:46:38.607Z,29.88
2018-05-23T11:49:09.707Z,29.93
2018-05-23T11:51:42.224Z,30.11
2018-05-23T11:54:10.870Z,30.37
2018-05-23T11:56:39.848Z,30.51
2018-05-23T11:59:08.486Z,30.77
2018-05-23T12:01:37.098Z,31.22
2018-05-23T12:04:05.720Z,31.42
2018-05-23T12:06:35.843Z,31.46
2018-05-23T12:09:04.474Z,33.09
2018-05-23T12:11:33.072Z,31.92
2018-05-23T12:14:01.745Z,31.96
2018-05-23T12:16:31.840Z,31.88
2018-05-23T12:19:00.763Z,31.71
2018-05-23T12:21:30.417Z,31.37
2018-05-23T12:23:59.082Z,31.30
2018-05-23T12:26:28.094Z,31.25
2018-05-23T12:28:57.981Z,31.15
2018-05-23T12:31:27.180Z,31.15
2018-05-23T12:33:57.339Z,31.05
2018-05-23T12:36:26.363Z,30.97
2018-05-23T12:39:00.441Z,30.96
2018-05-23T12:41:29.632Z,30.92
2018-05-23T12:43:58.872Z,31.15
2018-05-23T12:46:27.467Z,31.32
2018-05-23T12:49:08.513Z,31.80
2018-05-23T12:51:37.771Z,31.76
2018-05-23T12:54:10.139Z,31.65
2018-05-23T12:56:40.181Z,31.92
2018-05-23T12:59:14.074Z,31.78
2018-05-23T13:01:49.673Z,31.75
2018-05-23T13:04:20.023Z,32.19
2018-05-23T13:06:51.058Z,32.61
2018-05-23T13:09:20.381Z,32.80
2018-05-23T13:11:52.129Z,34.12
2018-05-23T13:14:21.499Z,32.64
2018-05-23T13:16:52.715Z,32.20
2018-05-23T13:19:30.320Z,32.23
2018-05-23T13:21:59.615Z,32.21
2018-05-23T13:24:28.802Z,32.10
2018-05-23T13:26:59.320Z,32.35
2018-05-23T13:29:31.927Z,33.73
2018-05-23T13:32:02.919Z,33.69
2018-05-23T13:34:34.525Z,33.70
2018-05-23T13:37:03.551Z,32.54
2018-05-23T13:39:33.673Z,32.15
2018-05-23T13:42:03.548Z,31.70
2018-05-23T13:44:42.381Z,31.44
2018-05-23T13:53:00.705Z,30.89
2018-05-23T13:55:32.141Z,30.87
2018-05-23T13:58:09.660Z,30.88
2018-05-23T14:00:47.237Z,30.82
2018-05-23T14:06:22.388Z,30.58
2018-05-23T14:11:53.157Z,30.35
2018-05-23T14:14:25.301Z,30.32
2018-05-23T14:16:54.735Z,30.27
2018-05-23T14:19:28.757Z,30.31
2018-05-23T14:22:02.499Z,30.06
2018-05-23T14:24:34.376Z,31.37
2018-05-23T14:29:58.657Z,29.82
2018-05-23T14:32:28.226Z,29.57
2018-05-23T14:35:03.919Z,29.61
2018-05-23T14:37:32.563Z,30.82
2018-05-23T14:40:01.225Z,29.71
2018-05-23T14:42:37.050Z,30.74
2018-05-23T14:45:05.847Z,29.75
2018-05-23T14:47:34.548Z,29.46
2018-05-23T14:50:03.558Z,29.45
2018-05-23T14:52:32.592Z,29.47
2018-05-23T14:55:01.555Z,29.33
2018-05-23T14:57:44.713Z,29.07
2018-05-23T15:00:15.055Z,28.89
2018-05-23T15:02:44.279Z,28.69
2018-05-23T15:05:24.705Z,28.61
2018-05-23T15:07:55.200Z,28.42
2018-05-23T15:10:25.357Z,28.29
2018-05-23T15:12:54.059Z,28.27
2018-05-23T15:15:22.668Z,28.34
2018-05-23T15:17:51.341Z,28.32
2018-05-23T15:20:22.906Z,28.40
2018-05-23T15:25:39.594Z,28.29
2018-05-23T15:28:08.251Z,28.23
2018-05-23T15:30:37.292Z,28.20
2018-05-23T15:33:06.598Z,29.26
2018-05-23T15:35:52.729Z,28.43
2018-05-23T15:38:28.564Z,28.35
2018-05-23T15:40:59.243Z,28.40
2018-05-23T15:43:36.853Z,28.32
2018-05-23T15:46:07.276Z,28.24
2018-05-23T15:48:43.340Z,28.14
2018-05-23T15:51:12.001Z,28.02
2018-05-23T15:53:41.260Z,28.02
2018-05-23T15:56:13.970Z,27.95
2018-05-23T15:58:46.327Z,27.96
2018-05-23T16:01:16.041Z,27.86
2018-05-23T16:03:47.990Z,28.94
2018-05-23T16:06:16.677Z,28.07
2018-05-23T16:08:46.953Z,27.83
2018-05-23T16:11:18.221Z,27.75
2018-05-23T16:13:47.957Z,27.66
2018-05-23T16:16:16.996Z,27.66
2018-05-23T16:18:49.307Z,27.59
2018-05-23T16:21:25.422Z,27.64
2018-05-23T16:23:54.235Z,27.54
2018-05-23T16:26:29.312Z,27.46
2018-05-23T16:29:02.119Z,27.28
2018-05-23T16:31:30.999Z,27.26
2018-05-23T16:34:02.362Z,28.39
2018-05-23T16:36:31.016Z,27.54
2018-05-23T16:38:59.658Z,27.48
2018-05-23T16:41:32.687Z,27.37
2018-05-23T16:44:03.784Z,27.28
2018-05-23T16:46:32.993Z,27.12
2018-05-23T16:49:01.692Z,27.03
2018-05-23T16:51:32.194Z,26.87
2018-05-23T16:54:02.188Z,26.70
2018-05-23T16:56:33.466Z,26.55
2018-05-23T16:59:05.752Z,27.52
2018-05-23T17:01:34.645Z,26.83
2018-05-23T17:04:13.257Z,26.72
2018-05-23T17:06:45.481Z,26.62
2018-05-23T17:09:17.231Z,26.55
2018-05-23T17:14:52.621Z,26.48
2018-05-23T17:17:22.331Z,26.34
2018-05-23T17:31:09.288Z,26.81
2018-05-23T17:36:25.669Z,25.84
2018-05-23T17:39:11.073Z,26.62
2018-05-23T17:50:04.145Z,25.40
2018-05-23T17:52:32.843Z,25.36
2018-05-23T17:57:57.020Z,25.28
2018-05-23T18:06:05.120Z,26.29
2018-05-23T18:11:26.107Z,25.35
2018-05-23T18:13:59.742Z,25.18
2018-05-23T18:16:32.704Z,25.03
2018-05-23T18:24:42.060Z,24.64
2018-05-23T18:32:57.613Z,24.51
2018-05-23T18:41:04.338Z,24.24
2018-05-23T18:46:21.139Z,24.05
2018-05-23T18:48:50.740Z,23.99
2018-05-23T18:51:22.433Z,23.93
2018-05-23T18:53:58.340Z,23.88
2018-05-23T18:56:28.204Z,23.82
2018-05-23T18:59:07.719Z,23.74
2018-05-23T19:01:37.926Z,23.67
2018-05-23T19:04:06.549Z,23.62
2018-05-23T19:06:43.113Z,23.52
2018-05-23T19:09:16.954Z,23.45
2018-05-23T19:11:46.326Z,23.37
2018-05-23T19:19:53.553Z,23.16
2018-05-23T19:22:24.503Z,23.11
2018-05-23T19:27:48.373Z,23.05
2018-05-23T19:30:17.350Z,23.03
2018-05-23T19:32:49.339Z,23.02
2018-05-23T19:35:22.451Z,23.02
2018-05-23T19:37:53.066Z,22.98
2018-05-23T19:40:29.113Z,22.94
2018-05-23T19:42:59.795Z,22.92
2018-05-23T19:45:31.456Z,22.88
2018-05-23T19:48:06.368Z,22.89
2018-05-23T19:56:36.034Z,23.04
2018-05-23T19:59:07.302Z,22.90
2018-05-23T20:01:36.423Z,23.58
2018-05-23T20:04:11.569Z,23.00
2018-05-23T20:06:40.779Z,22.84
2018-05-23T20:09:09.964Z,22.76
2018-05-23T20:11:38.678Z,22.70
2018-05-23T20:14:16.581Z,22.65
2018-05-23T20:16:53.067Z,23.31
2018-05-23T20:19:27.371Z,22.78
2018-05-23T20:21:58.945Z,22.64
2018-05-23T20:24:38.413Z,23.26
2018-05-23T20:29:59.850Z,22.50
2018-05-23T20:32:37.684Z,22.40
2018-05-23T20:35:15.284Z,22.29
2018-05-23T20:40:37.900Z,22.19
2018-05-23T20:43:08.563Z,22.15
2018-05-23T20:48:25.199Z,22.29
2018-05-23T20:50:54.289Z,22.19
2018-05-23T20:53:24.719Z,22.80
2018-05-23T20:55:53.342Z,22.22
2018-05-23T20:58:27.013Z,22.75
2018-05-23T21:00:56.974Z,22.13
2018-05-23T21:03:27.158Z,22.66
2018-05-23T21:05:57.128Z,22.04
2018-05-23T21:08:25.764Z,21.79
2018-05-23T21:11:02.237Z,21.65
2018-05-23T21:13:49.603Z,21.50
2018-05-23T21:16:19.242Z,22.12
2018-05-23T21:18:51.834Z,21.50
2018-05-23T21:21:26.608Z,21.30
2018-05-23T21:24:06.409Z,21.91
2018-05-23T21:26:50.845Z,21.25
2018-05-23T21:29:20.579Z,21.03
2018-05-23T21:31:49.316Z,20.92
2018-05-23T21:34:20.883Z,20.80
2018-05-23T21:36:49.909Z,20.68
2018-05-23T21:39:37.892Z,20.58
2018-05-23T21:42:07.970Z,20.50
2018-05-23T21:44:42.084Z,20.44
2018-05-23T21:47:15.968Z,21.16
2018-05-23T21:49:44.686Z,20.57
2018-05-23T21:52:15.461Z,20.44
2018-05-23T21:54:49.577Z,20.36
2018-05-23T21:57:20.294Z,20.27
2018-05-23T21:59:49.043Z,20.20
2018-05-23T22:02:19.101Z,20.14
2018-05-23T22:04:48.634Z,20.06
2018-05-23T22:10:05.350Z,19.92
2018-05-23T22:12:40.192Z,19.89
2018-05-23T22:15:15.963Z,19.86
2018-05-23T22:17:46.836Z,19.82
2018-05-23T22:20:16.993Z,19.83
2018-05-23T22:22:55.300Z,19.78
2018-05-23T22:25:26.369Z,19.74
2018-05-23T22:27:57.997Z,19.73
2018-05-23T22:30:30.732Z,19.74
2018-05-23T22:32:59.598Z,19.70
2018-05-23T22:35:29.575Z,19.66
2018-05-23T22:37:59.187Z,19.62
2018-05-23T22:40:33.168Z,19.58
2018-05-23T22:43:02.340Z,19.55
2018-05-23T22:45:31.786Z,19.52
2018-05-23T22:48:00.788Z,19.45
2018-05-23T22:50:29.861Z,19.39
2018-05-23T22:53:00.673Z,19.35
2018-05-23T22:55:29.379Z,19.31
2018-05-23T22:57:58.065Z,19.27
2018-05-23T23:00:30.982Z,19.97
2018-05-23T23:02:59.645Z,19.52
2018-05-23T23:05:29.674Z,19.46
2018-05-23T23:07:59.620Z,19.47
2018-05-23T23:10:34.002Z,19.49
2018-05-23T23:13:05.445Z,19.52
2018-05-23T23:15:37.957Z,19.52
2018-05-23T23:18:06.681Z,19.55
2018-05-23T23:20:37.267Z,19.59
2018-05-23T23:23:07.661Z,19.62
2018-05-23T23:25:43.492Z,19.66
2018-05-23T23:28:13.057Z,19.68
2018-05-23T23:30:42.813Z,19.69
2018-05-23T23:33:14.347Z,19.72
2018-05-23T23:35:43.395Z,19.75
2018-05-23T23:38:12.728Z,19.79
2018-05-23T23:40:41.377Z,20.46
2018-05-23T23:43:12.472Z,20.01
2018-05-23T23:45:41.163Z,19.92
2018-05-23T23:48:09.854Z,19.91
2018-05-23T23:50:38.581Z,19.89
2018-05-23T23:53:07.199Z,19.88
2018-05-23T23:55:38.771Z,19.92
2018-05-23T23:58:07.514Z,19.96
